Lezárt

Create a library to decode the main aviation weather reports

A projektre 9 árajánlat érkezett képzett szabadúszóinktól, az átlagos ajánlat a következő volt: $518 USD.

Kapjon ingyenes árajánlatokat egy hasonló projektre
A munkaadó dolgozik
Projekt költségvetés
$250 - $750 USD
Összes Árajánlat
9
Projekleírás

I am looking for a clean JAVA library which I can include into my existing Android application, which enables me to decode aviation weather messages (including mainly TAF + METAR messages).

Parts of the application is already available (METAR decoding) in an open source library: [url removed, login to view] and this should be also the programming style I am looking for.

As I am a big fan of open source, I would like you to expand the current jweather project for the TAF decoding, which would be your job.

METAR examples:

LSZH 281820Z 08003KT CAVOK 07/00 Q1025 NOSIG

KJFK 281751Z 34016G20KT 10SM CLR 10/M08 A3035 RMK AO2 SLP278 T01001078 10100 20044 58001

TAF examples:

LSZH 281725Z 2818/2924 VRB03KT 9999 FEW060 BKN200 TX14/2915Z TN01/2906Z

BECMG 2910/2912 05007KT CAVOK

BECMG 2918/2920 VRB03KT

BECMG 2920/2922 4000 MIFG

TEMPO 2922/2924 2000 BCFG

KJFK 281739Z 2818/2924 31014G22KT P6SM FEW050

FM282100 33011KT P6SM SCT250

FM290600 VRB04KT P6SM SCT100 BKN200

FM291400 07007KT 6SM -RA SCT010 BKN050

FM291700 10011KT 3SM RA SCT007 OVC020

FM292100 11013KT 2SM RA SCT005 OVC010

For more details see [url removed, login to view]

Szeretne pénzt keresni?

  • Adja meg a költségvetést és a munkaelvégzéséhez szükséges időt
  • Vázolja fel ajánlatát
  • Kapjon fizetést munkájáért

Alkalmazza a szabadúszókat, akik erre a projektre is ajánlatot adtak

    • Forbes
    • The New York Times
    • Time
    • Wall Street Journal
    • Times Online